Time,TemperatureF,DewpointF,PressureIn,WindDirection,WindDirectionDegrees,WindSpeedMPH,WindSpeedGustMPH,Humidity,HourlyPrecipIn,Conditions,Clouds,dailyrainin,SoftwareType,DateUTC
2013-07-30 00:01:00,63.1,59.8,30.14,WNW,289,0.0,0.0,89,0.00,,CLR,0.00,VWS V14.01,2013-07-30 04:01:00,
2013-07-30 00:02:00,63.1,59.8,30.14,WNW,289,0.0,0.0,89,0.00,,CLR,0.00,VWS V14.01,2013-07-30 04:02:00,
2013-07-30 00:07:00,63.0,59.7,30.14,WNW,289,0.0,0.0,89,0.00,,CLR,0.00,VWS V14.01,2013-07-30 04:07:00,
2013-07-30 00:12:00,62.8,59.5,30.14,WNW,289,0.0,0.0,89,0.00,,CLR,0.00,VWS V14.01,2013-07-30 04:12:00,
2013-07-30 00:17:00,62.6,59.6,30.14,WNW,289,0.0,0.0,90,0.00,,CLR,0.00,VWS V14.01,2013-07-30 04:17:00,
2013-07-30 00:22:00,62.5,59.5,30.14,WNW,289,0.0,0.0,90,0.00,,CLR,0.00,VWS V14.01,2013-07-30 04:22:00,
2013-07-30 00:27:00,62.3,59.3,30.14,WNW,289,0.0,0.0,90,0.00,,CLR,0.00,VWS V14.01,2013-07-30 04:27:00,
2013-07-30 00:32:00,62.1,59.1,30.14,WNW,289,0.0,0.0,90,0.00,,CLR,0.00,VWS V14.01,2013-07-30 04:32:00,
2013-07-30 00:38:00,61.9,58.9,30.14,WNW,289,0.0,0.0,90,0.00,,CLR,0.00,VWS V14.01,2013-07-30 04:38:00,
2013-07-30 00:43:00,61.7,59.0,30.14,WNW,289,0.0,0.0,91,0.00,,CLR,0.00,VWS V14.01,2013-07-30 04:43:00,
2013-07-30 00:48:00,61.6,59.0,30.14,WNW,289,0.0,0.0,91,0.00,,CLR,0.00,VWS V14.01,2013-07-30 04:48:00,
2013-07-30 00:53:00,61.4,58.8,30.14,WNW,289,0.0,0.0,91,0.00,,CLR,0.00,VWS V14.01,2013-07-30 04:53:00,
2013-07-30 00:58:00,61.3,58.7,30.14,WNW,289,0.0,0.0,91,0.00,,CLR,0.00,VWS V14.01,2013-07-30 04:58:00,
2013-07-30 01:03:00,61.1,58.8,30.14,WNW,289,0.0,0.0,92,0.00,,CLR,0.00,VWS V14.01,2013-07-30 05:03:00,
2013-07-30 01:08:00,60.9,58.6,30.14,WNW,289,0.0,0.0,92,0.00,,CLR,0.00,VWS V14.01,2013-07-30 05:08:00,
2013-07-30 01:13:00,60.8,58.5,30.14,WNW,289,0.0,0.0,92,0.00,,CLR,0.00,VWS V14.01,2013-07-30 05:13:00,
2013-07-30 01:18:00,60.9,58.9,30.14,WNW,289,0.0,0.0,93,0.00,,CLR,0.00,VWS V14.01,2013-07-30 05:18:00,
2013-07-30 01:23:00,61.0,59.0,30.14,WNW,289,0.0,0.0,93,0.00,,CLR,0.00,VWS V14.01,2013-07-30 05:23:00,
2013-07-30 01:28:00,60.9,58.9,30.15,WNW,289,0.0,0.0,93,0.00,,CLR,0.00,VWS V14.01,2013-07-30 05:28:00,
2013-07-30 01:33:00,60.9,58.9,30.14,WNW,289,0.0,0.0,93,0.00,,,0.00,VWS V14.01,2013-07-30 05:33:00,
2013-07-30 01:38:00,60.8,58.5,30.14,WNW,289,0.0,0.0,92,0.00,,,0.00,VWS V14.01,2013-07-30 05:38:00,
2013-07-30 01:43:00,60.6,58.6,30.14,WNW,289,0.0,0.0,93,0.00,,,0.00,VWS V14.01,2013-07-30 05:43:00,
2013-07-30 01:48:00,60.5,58.5,30.14,WNW,289,0.0,0.0,93,0.00,,,0.00,VWS V14.01,2013-07-30 05:48:00,
2013-07-30 01:53:00,60.4,58.4,30.14,WNW,289,0.0,0.0,93,0.00,,,0.00,VWS V14.01,2013-07-30 05:53:00,
2013-07-30 01:58:00,60.2,58.2,30.14,WNW,289,0.0,0.0,93,0.00,,,0.00,VWS V14.01,2013-07-30 05:58:00,
2013-07-30 02:03:00,60.2,58.2,30.14,WNW,289,0.0,0.0,93,0.00,,CLR,0.00,VWS V14.01,2013-07-30 06:03:00,
2013-07-30 02:08:00,60.0,58.0,30.14,WNW,289,0.0,0.0,93,0.00,,CLR,0.00,VWS V14.01,2013-07-30 06:08:00,
2013-07-30 02:13:00,60.1,58.4,30.14,WNW,289,0.0,0.0,94,0.00,,CLR,0.00,VWS V14.01,2013-07-30 06:13:00,
2013-07-30 02:18:00,60.0,58.0,30.14,WNW,289,0.0,0.0,93,0.00,,CLR,0.00,VWS V14.01,2013-07-30 06:18:00,
2013-07-30 02:23:00,60.0,58.3,30.14,WNW,289,0.0,0.0,94,0.00,,CLR,0.00,VWS V14.01,2013-07-30 06:23:00,
2013-07-30 02:28:00,60.0,58.3,30.14,WNW,289,0.0,0.0,94,0.00,,CLR,0.00,VWS V14.01,2013-07-30 06:28:00,
2013-07-30 02:33:00,60.0,58.3,30.14,WNW,289,0.0,0.0,94,0.00,,CLR,0.00,VWS V14.01,2013-07-30 06:33:00,
2013-07-30 02:38:00,59.9,57.9,30.14,WNW,289,0.0,0.0,93,0.00,,CLR,0.00,VWS V14.01,2013-07-30 06:38:00,
2013-07-30 02:43:00,59.7,57.7,30.14,WNW,289,0.0,0.0,93,0.00,,CLR,0.00,VWS V14.01,2013-07-30 06:43:00,
2013-07-30 02:48:00,59.5,57.5,30.14,WNW,289,0.0,0.0,93,0.00,,CLR,0.00,VWS V14.01,2013-07-30 06:48:00,
2013-07-30 02:53:00,59.4,57.7,30.14,WNW,289,0.0,0.0,94,0.00,,CLR,0.00,VWS V14.01,2013-07-30 06:53:00,
2013-07-30 02:58:00,59.3,57.6,30.14,WNW,289,0.0,0.0,94,0.00,,CLR,0.00,VWS V14.01,2013-07-30 06:58:00,
2013-07-30 03:03:00,59.1,57.4,30.14,WNW,289,0.0,0.0,94,0.00,,CLR,0.00,VWS V14.01,2013-07-30 07:03:00,
2013-07-30 03:08:00,59.1,57.4,30.14,WNW,289,0.0,0.0,94,0.00,,CLR,0.00,VWS V14.01,2013-07-30 07:08:00,
2013-07-30 03:13:00,59.1,57.4,30.14,WNW,289,0.0,0.0,94,0.00,,CLR,0.00,VWS V14.01,2013-07-30 07:13:00,
2013-07-30 03:18:00,59.1,57.4,30.14,WNW,289,0.0,0.0,94,0.00,,CLR,0.00,VWS V14.01,2013-07-30 07:18:00,
2013-07-30 03:23:00,59.1,57.4,30.14,WNW,289,0.0,0.0,94,0.00,,CLR,0.00,VWS V14.01,2013-07-30 07:23:00,
2013-07-30 03:29:00,58.9,57.2,30.14,WNW,289,0.0,0.0,94,0.00,,CLR,0.00,VWS V14.01,2013-07-30 07:29:00,
2013-07-30 03:34:00,58.8,57.1,30.14,WNW,289,0.0,0.0,94,0.00,,CLR,0.00,VWS V14.01,2013-07-30 07:34:00,
2013-07-30 03:39:00,58.7,57.0,30.14,WNW,289,0.0,0.0,94,0.00,,CLR,0.00,VWS V14.01,2013-07-30 07:39:00,
2013-07-30 03:44:00,58.6,56.9,30.14,WNW,289,0.0,0.0,94,0.00,,CLR,0.00,VWS V14.01,2013-07-30 07:44:00,
2013-07-30 03:49:00,58.5,56.8,30.14,WNW,289,0.0,0.0,94,0.00,,CLR,0.00,VWS V14.01,2013-07-30 07:49:00,
2013-07-30 03:54:00,58.4,56.7,30.14,WNW,289,0.0,0.0,94,0.00,,CLR,0.00,VWS V14.01,2013-07-30 07:54:00,
2013-07-30 03:59:00,58.4,56.7,30.14,WNW,289,0.0,0.0,94,0.00,,CLR,0.00,VWS V14.01,2013-07-30 07:59:00,
2013-07-30 04:04:00,58.3,56.9,30.14,WNW,289,0.0,0.0,95,0.00,,,0.00,VWS V14.01,2013-07-30 08:04:00,
2013-07-30 04:09:00,58.2,56.8,30.15,WNW,289,0.0,0.0,95,0.00,,,0.00,VWS V14.01,2013-07-30 08:09:00,
2013-07-30 04:14:00,58.2,56.8,30.15,WNW,289,0.0,0.0,95,0.00,,,0.00,VWS V14.01,2013-07-30 08:14:00,
2013-07-30 04:19:00,58.1,56.7,30.15,WNW,290,0.0,0.0,95,0.00,,,0.00,VWS V14.01,2013-07-30 08:19:00,
2013-07-30 04:24:00,58.1,56.7,30.15,WNW,289,0.0,0.0,95,0.00,,,0.00,VWS V14.01,2013-07-30 08:24:00,
2013-07-30 04:29:00,58.0,56.6,30.15,WNW,289,0.0,0.0,95,0.00,,,0.00,VWS V14.01,2013-07-30 08:29:00,
2013-07-30 04:34:00,57.9,56.5,30.15,WNW,289,0.0,0.0,95,0.00,,CLR,0.00,VWS V14.01,2013-07-30 08:34:00,
2013-07-30 04:39:00,57.8,56.4,30.15,WNW,289,0.0,0.0,95,0.00,,CLR,0.00,VWS V14.01,2013-07-30 08:39:00,
2013-07-30 04:44:00,57.7,56.3,30.15,WNW,289,0.0,0.0,95,0.00,,CLR,0.00,VWS V14.01,2013-07-30 08:44:00,
2013-07-30 04:49:00,57.6,56.2,30.15,WNW,289,0.0,0.0,95,0.00,,CLR,0.00,VWS V14.01,2013-07-30 08:49:00,
2013-07-30 04:54:00,57.6,56.2,30.15,WNW,290,0.0,0.0,95,0.00,,CLR,0.00,VWS V14.01,2013-07-30 08:54:00,
2013-07-30 04:59:00,57.5,56.1,30.15,WNW,289,0.0,0.0,95,0.00,,CLR,0.00,VWS V14.01,2013-07-30 08:59:00,
2013-07-30 05:04:00,57.4,56.0,30.16,WNW,289,0.0,0.0,95,0.00,,,0.00,VWS V14.01,2013-07-30 09:04:00,
2013-07-30 05:09:00,57.4,56.0,30.16,WNW,289,0.0,0.0,95,0.00,,,0.00,VWS V14.01,2013-07-30 09:09:00,
2013-07-30 05:14:00,57.3,55.9,30.16,WNW,289,0.0,0.0,95,0.00,,,0.00,VWS V14.01,2013-07-30 09:14:00,
2013-07-30 05:19:00,57.3,55.9,30.16,WNW,289,0.0,0.0,95,0.00,,,0.00,VWS V14.01,2013-07-30 09:19:00,
2013-07-30 05:24:00,57.3,55.9,30.16,WNW,289,0.0,0.0,95,0.00,,,0.00,VWS V14.01,2013-07-30 09:24:00,
2013-07-30 05:29:00,57.3,55.9,30.17,WNW,289,0.0,0.0,95,0.00,,,0.00,VWS V14.01,2013-07-30 09:29:00,
2013-07-30 05:34:00,57.2,55.8,30.17,WNW,289,0.0,0.0,95,0.00,,,0.00,VWS V14.01,2013-07-30 09:34:00,
2013-07-30 05:39:00,57.2,55.8,30.17,WNW,289,0.0,0.0,95,0.00,,,0.00,VWS V14.01,2013-07-30 09:39:00,
2013-07-30 05:44:00,57.1,55.7,30.17,WNW,289,0.0,0.0,95,0.00,,,0.00,VWS V14.01,2013-07-30 09:44:00,
2013-07-30 05:49:00,57.1,56.0,30.17,WNW,289,0.0,0.0,96,0.00,,,0.00,VWS V14.01,2013-07-30 09:49:00,
2013-07-30 05:54:00,57.1,56.0,30.17,WNW,289,0.0,0.0,96,0.00,,,0.00,VWS V14.01,2013-07-30 09:54:00,
2013-07-30 05:59:00,57.2,56.1,30.18,WNW,289,0.0,0.0,96,0.00,,,0.00,VWS V14.01,2013-07-30 09:59:00,
2013-07-30 06:04:00,57.2,55.8,30.18,WNW,289,0.0,0.0,95,0.00,,,0.00,VWS V14.01,2013-07-30 10:04:00,
2013-07-30 06:09:00,57.1,55.7,30.18,WNW,289,0.0,0.0,95,0.00,,,0.00,VWS V14.01,2013-07-30 10:09:00,
2013-07-30 06:14:00,57.1,56.0,30.18,WNW,289,0.0,0.0,96,0.00,,,0.00,VWS V14.01,2013-07-30 10:14:00,
2013-07-30 06:19:00,57.1,56.0,30.18,WNW,289,0.0,0.0,96,0.00,,,0.00,VWS V14.01,2013-07-30 10:19:00,
2013-07-30 06:24:00,57.1,55.7,30.18,WNW,289,0.0,0.0,95,0.00,,,0.00,VWS V14.01,2013-07-30 10:24:00,
2013-07-30 06:29:00,57.1,56.0,30.18,WNW,289,0.0,0.0,96,0.00,,,0.00,VWS V14.01,2013-07-30 10:29:00,
2013-07-30 06:34:00,57.2,56.1,30.18,WNW,289,0.0,0.0,96,0.00,,,0.00,VWS V14.01,2013-07-30 10:34:00,
2013-07-30 06:39:00,57.3,56.2,30.18,WNW,289,0.0,0.0,96,0.00,,,0.00,VWS V14.01,2013-07-30 10:39:00,
2013-07-30 06:44:00,57.3,56.2,30.18,WNW,289,0.0,0.0,96,0.00,,,0.00,VWS V14.01,2013-07-30 10:44:00,
2013-07-30 06:49:00,57.6,56.8,30.18,WNW,289,0.0,0.0,97,0.00,,,0.00,VWS V14.01,2013-07-30 10:49:00,
2013-07-30 06:54:00,57.8,57.0,30.18,WNW,289,0.0,0.0,97,0.00,,,0.00,VWS V14.01,2013-07-30 10:54:00,
2013-07-30 06:59:00,58.1,57.3,30.18,WNW,289,0.0,0.0,97,0.00,,CLR,0.00,VWS V14.01,2013-07-30 10:59:00,
2013-07-30 07:04:00,58.4,57.6,30.18,WNW,289,0.0,0.0,97,0.00,,CLR,0.00,VWS V14.01,2013-07-30 11:04:00,
2013-07-30 07:09:00,58.7,57.8,30.18,WNW,289,0.0,0.0,97,0.00,,CLR,0.00,VWS V14.01,2013-07-30 11:09:00,
2013-07-30 07:14:00,59.0,58.2,30.18,WNW,289,0.0,0.0,97,0.00,,CLR,0.00,VWS V14.01,2013-07-30 11:14:00,
2013-07-30 07:19:00,59.4,58.5,30.19,WNW,289,0.0,0.0,97,0.00,,CLR,0.00,VWS V14.01,2013-07-30 11:19:00,
2013-07-30 07:24:00,59.7,58.8,30.18,WNW,289,0.0,0.0,97,0.00,,CLR,0.00,VWS V14.01,2013-07-30 11:24:00,
2013-07-30 07:29:00,60.1,59.2,30.19,WNW,289,0.0,0.0,97,0.00,,CLR,0.00,VWS V14.01,2013-07-30 11:29:00,
2013-07-30 07:34:00,60.4,59.5,30.19,WNW,289,0.0,0.0,97,0.00,,CLR,0.00,VWS V14.01,2013-07-30 11:34:00,
2013-07-30 07:39:00,60.7,59.8,30.19,WNW,289,0.0,1.0,97,0.00,,CLR,0.00,VWS V14.01,2013-07-30 11:39:00,
2013-07-30 07:44:00,61.0,59.9,30.19,NNW,331,0.0,2.0,96,0.00,,CLR,0.00,VWS V14.01,2013-07-30 11:44:00,
2013-07-30 07:49:00,61.4,60.0,30.19,NNW,331,0.0,2.0,95,0.00,,CLR,0.00,VWS V14.01,2013-07-30 11:49:00,
2013-07-30 07:54:00,61.9,60.5,30.19,NNW,331,0.0,2.0,95,0.00,,CLR,0.00,VWS V14.01,2013-07-30 11:54:00,
2013-07-30 07:59:00,62.3,60.6,30.19,NNW,331,0.0,0.0,94,0.00,,CLR,0.00,VWS V14.01,2013-07-30 11:59:00,
2013-07-30 08:04:00,62.8,60.8,30.19,NNW,331,0.0,1.0,93,0.00,,CLR,0.00,VWS V14.01,2013-07-30 12:04:00,
2013-07-30 08:10:00,63.4,61.0,30.19,NNW,331,1.0,1.0,92,0.00,,CLR,0.00,VWS V14.01,2013-07-30 12:10:00,
2013-07-30 08:15:00,64.0,60.7,30.20,North,9,0.0,2.0,89,0.00,,CLR,0.00,VWS V14.01,2013-07-30 12:15:00,
2013-07-30 08:20:00,64.5,60.5,30.20,NNW,339,0.0,2.0,87,0.00,,CLR,0.00,VWS V14.01,2013-07-30 12:20:00,
2013-07-30 08:25:00,65.2,60.9,30.20,NNW,341,1.0,2.0,86,0.00,,CLR,0.00,VWS V14.01,2013-07-30 12:25:00,
2013-07-30 08:30:00,65.8,60.5,30.20,NE,53,0.0,3.0,83,0.00,,CLR,0.00,VWS V14.01,2013-07-30 12:30:00,
2013-07-30 08:35:00,66.6,60.9,30.20,North,360,0.0,3.0,82,0.00,,CLR,0.00,VWS V14.01,2013-07-30 12:35:00,
2013-07-30 08:40:00,67.1,61.4,30.20,NNW,348,2.0,3.0,82,0.00,,CLR,0.00,VWS V14.01,2013-07-30 12:40:00,
2013-07-30 08:45:00,67.9,61.5,30.20,NNE,15,1.0,3.0,80,0.00,,CLR,0.00,VWS V14.01,2013-07-30 12:45:00,
2013-07-30 08:50:00,68.6,61.8,30.20,NNW,346,1.0,3.0,79,0.00,,CLR,0.00,VWS V14.01,2013-07-30 12:50:00,
2013-07-30 08:55:00,69.4,62.2,30.19,NW,323,2.0,4.0,78,0.00,,CLR,0.00,VWS V14.01,2013-07-30 12:55:00,
2013-07-30 09:00:00,70.1,61.8,30.20,NW,316,4.0,4.0,75,0.00,,CLR,0.00,VWS V14.01,2013-07-30 13:00:00,
2013-07-30 09:05:00,71.0,61.9,30.20,NNW,331,0.0,4.0,73,0.00,,CLR,0.00,VWS V14.01,2013-07-30 13:05:00,
2013-07-30 09:10:00,71.9,62.0,30.20,NNW,338,4.0,4.0,71,0.00,,CLR,0.00,VWS V14.01,2013-07-30 13:10:00,
2013-07-30 09:15:00,72.8,61.2,30.20,NW,317,4.0,7.0,67,0.00,,CLR,0.00,VWS V14.01,2013-07-30 13:15:00,
2013-07-30 09:20:00,73.5,59.7,30.20,WNW,296,2.0,10.0,62,0.00,,CLR,0.00,VWS V14.01,2013-07-30 13:20:00,
2013-07-30 09:25:00,73.4,60.5,30.20,NNW,327,7.0,10.0,64,0.00,,CLR,0.00,VWS V14.01,2013-07-30 13:25:00,
2013-07-30 09:30:00,73.7,59.9,30.20,North,350,3.0,3.0,62,0.00,,CLR,0.00,VWS V14.01,2013-07-30 13:30:00,
2013-07-30 09:35:00,73.8,59.5,30.20,NW,306,1.0,8.0,61,0.00,,CLR,0.00,VWS V14.01,2013-07-30 13:35:00,
2013-07-30 09:40:00,73.9,60.5,30.20,NW,317,3.0,8.0,63,0.00,,CLR,0.00,VWS V14.01,2013-07-30 13:40:00,
2013-07-30 09:45:00,74.4,59.6,30.20,West,277,5.0,9.0,60,0.00,,CLR,0.00,VWS V14.01,2013-07-30 13:45:00,
2013-07-30 09:50:00,74.5,59.7,30.20,West,271,2.0,9.0,60,0.00,,CLR,0.00,VWS V14.01,2013-07-30 13:50:00,
2013-07-30 09:55:00,74.6,60.3,30.20,NW,313,3.0,9.0,61,0.00,,CLR,0.00,VWS V14.01,2013-07-30 13:55:00,
2013-07-30 10:00:00,74.7,60.4,30.20,West,271,3.0,5.0,61,0.00,,CLR,0.00,VWS V14.01,2013-07-30 14:00:00,
2013-07-30 10:05:00,75.0,61.1,30.20,NNW,331,8.0,10.0,62,0.00,,CLR,0.00,VWS V14.01,2013-07-30 14:05:00,
2013-07-30 10:10:00,75.3,60.9,30.20,WNW,295,6.0,10.0,61,0.00,,CLR,0.00,VWS V14.01,2013-07-30 14:10:00,
2013-07-30 10:15:00,75.6,60.8,30.20,North,5,5.0,10.0,60,0.00,,CLR,0.00,VWS V14.01,2013-07-30 14:15:00,
2013-07-30 10:20:00,76.0,60.7,30.20,NNE,22,6.0,10.0,59,0.00,,CLR,0.00,VWS V14.01,2013-07-30 14:20:00,
2013-07-30 10:25:00,75.9,60.6,30.20,NW,313,5.0,10.0,59,0.00,,CLR,0.00,VWS V14.01,2013-07-30 14:25:00,
2013-07-30 10:30:00,76.1,59.8,30.20,NNW,334,4.0,4.0,57,0.00,,CLR,0.00,VWS V14.01,2013-07-30 14:30:00,
2013-07-30 10:35:00,76.3,60.5,30.20,WNW,286,6.0,7.0,58,0.00,,CLR,0.00,VWS V14.01,2013-07-30 14:35:00,
2013-07-30 10:40:00,76.5,60.6,30.19,WNW,302,4.0,8.0,58,0.00,,CLR,0.00,VWS V14.01,2013-07-30 14:40:00,
2013-07-30 10:45:00,76.4,59.6,30.20,NNW,330,4.0,8.0,56,0.00,,CLR,0.00,VWS V14.01,2013-07-30 14:45:00,
2013-07-30 10:50:00,76.6,60.2,30.20,NW,318,4.0,8.0,57,0.00,,CLR,0.00,VWS V14.01,2013-07-30 14:50:00,
2013-07-30 10:55:00,77.2,59.8,30.20,NNW,335,3.0,8.0,55,0.00,,CLR,0.00,VWS V14.01,2013-07-30 14:55:00,
2013-07-30 11:00:00,77.7,59.8,30.19,NNW,336,4.0,5.0,54,0.00,,CLR,0.00,VWS V14.01,2013-07-30 15:00:00,
2013-07-30 11:05:00,77.9,59.9,30.19,WNW,300,3.0,8.0,54,0.00,,CLR,0.00,VWS V14.01,2013-07-30 15:05:00,
2013-07-30 11:10:00,78.2,59.7,30.19,NNW,329,1.0,8.0,53,0.00,,CLR,0.00,VWS V14.01,2013-07-30 15:10:00,
2013-07-30 11:15:00,78.7,59.6,30.19,NW,305,4.0,9.0,52,0.00,,CLR,0.00,VWS V14.01,2013-07-30 15:15:00,
2013-07-30 11:20:00,78.7,60.2,30.19,NNW,338,0.0,9.0,53,0.00,,CLR,0.00,VWS V14.01,2013-07-30 15:20:00,
2013-07-30 11:25:00,78.9,60.3,30.19,WNW,288,3.0,9.0,53,0.00,,CLR,0.00,VWS V14.01,2013-07-30 15:25:00,
2013-07-30 11:30:00,79.4,60.3,30.19,NE,34,0.0,3.0,52,0.00,,CLR,0.00,VWS V14.01,2013-07-30 15:30:00,
2013-07-30 11:35:00,79.9,60.2,30.18,East,80,0.0,3.0,51,0.00,,CLR,0.00,VWS V14.01,2013-07-30 15:35:00,
2013-07-30 11:40:00,80.4,61.2,30.18,NW,310,3.0,7.0,52,0.00,,CLR,0.00,VWS V14.01,2013-07-30 15:40:00,
2013-07-30 11:45:00,80.9,61.1,30.18,WSW,258,4.0,7.0,51,0.00,,CLR,0.00,VWS V14.01,2013-07-30 15:45:00,
2013-07-30 11:51:00,80.2,60.5,30.18,NW,306,2.0,7.0,51,0.00,,CLR,0.00,VWS V14.01,2013-07-30 15:51:00,
2013-07-30 11:56:00,80.6,61.4,30.18,NW,306,5.0,8.0,52,0.00,,CLR,0.00,VWS V14.01,2013-07-30 15:56:00,
2013-07-30 12:01:00,80.7,60.3,30.18,NNW,339,3.0,5.0,50,0.00,,CLR,0.00,VWS V14.01,2013-07-30 16:01:00,
2013-07-30 12:06:00,81.1,60.2,30.18,NNW,332,2.0,9.0,49,0.00,,CLR,0.00,VWS V14.01,2013-07-30 16:06:00,
2013-07-30 12:11:00,80.8,58.7,30.18,WNW,299,6.0,9.0,47,0.00,,CLR,0.00,VWS V14.01,2013-07-30 16:11:00,
2013-07-30 12:16:00,80.3,58.2,30.18,NW,322,1.0,9.0,47,0.00,,CLR,0.00,VWS V14.01,2013-07-30 16:16:00,
2013-07-30 12:21:00,79.9,58.5,30.18,ENE,59,0.0,9.0,48,0.00,,CLR,0.00,VWS V14.01,2013-07-30 16:21:00,
2013-07-30 12:26:00,80.3,59.4,30.18,NW,312,2.0,9.0,49,0.00,,CLR,0.00,VWS V14.01,2013-07-30 16:26:00,
2013-07-30 12:31:00,81.3,59.2,30.17,WSW,254,1.0,6.0,47,0.00,,CLR,0.00,VWS V14.01,2013-07-30 16:31:00,
2013-07-30 12:36:00,80.5,57.8,30.17,WSW,248,1.0,6.0,46,0.00,,CLR,0.00,VWS V14.01,2013-07-30 16:36:00,
2013-07-30 12:41:00,79.8,58.4,30.17,NW,316,4.0,9.0,48,0.00,,CLR,0.00,VWS V14.01,2013-07-30 16:41:00,
2013-07-30 12:46:00,80.1,58.1,30.17,WSW,255,2.0,9.0,47,0.00,,CLR,0.00,VWS V14.01,2013-07-30 16:46:00,
2013-07-30 12:51:00,80.2,59.3,30.17,North,355,2.0,9.0,49,0.00,,CLR,0.00,VWS V14.01,2013-07-30 16:51:00,
2013-07-30 12:56:00,81.0,60.1,30.17,NNW,333,7.0,9.0,49,0.00,,CLR,0.00,VWS V14.01,2013-07-30 16:56:00,
2013-07-30 13:01:00,81.6,59.4,30.17,WNW,292,1.0,4.0,47,0.00,,SCT060,0.00,VWS V14.01,2013-07-30 17:01:00,
2013-07-30 13:06:00,81.8,59.0,30.17,NNW,342,8.0,9.0,46,0.00,,SCT060,0.00,VWS V14.01,2013-07-30 17:06:00,
2013-07-30 13:11:00,81.9,59.1,30.17,WNW,300,6.0,9.0,46,0.00,,SCT060,0.00,VWS V14.01,2013-07-30 17:11:00,
2013-07-30 13:17:00,82.4,59.0,30.17,NNW,333,5.0,10.0,45,0.00,,SCT060,0.00,VWS V14.01,2013-07-30 17:17:00,
2013-07-30 13:22:00,82.5,59.0,30.17,WSW,248,2.0,10.0,45,0.00,,SCT060,0.00,VWS V14.01,2013-07-30 17:22:00,
2013-07-30 13:27:00,82.4,59.6,30.16,NW,316,5.0,10.0,46,0.00,,SCT060,0.00,VWS V14.01,2013-07-30 17:27:00,
2013-07-30 13:32:00,82.8,59.9,30.16,West,267,2.0,5.0,46,0.00,,SCT060,0.00,VWS V14.01,2013-07-30 17:32:00,
2013-07-30 13:37:00,83.5,59.3,30.16,West,260,5.0,8.0,44,0.00,,SCT060,0.00,VWS V14.01,2013-07-30 17:37:00,
2013-07-30 13:42:00,83.5,59.3,30.16,WNW,292,5.0,10.0,44,0.00,,SCT060,0.00,VWS V14.01,2013-07-30 17:42:00,
2013-07-30 13:47:00,83.8,59.6,30.16,SW,236,0.0,11.0,44,0.00,,SCT060,0.00,VWS V14.01,2013-07-30 17:47:00,
2013-07-30 13:52:00,83.6,58.8,30.16,SW,229,3.0,11.0,43,0.00,,SCT060,0.00,VWS V14.01,2013-07-30 17:52:00,
2013-07-30 13:57:00,83.7,60.1,30.16,NW,309,3.0,11.0,45,0.00,,SCT060,0.00,VWS V14.01,2013-07-30 17:57:00,
2013-07-30 14:02:00,83.1,59.0,30.16,NW,309,2.0,8.0,44,0.00,,BKN050,0.00,VWS V14.01,2013-07-30 18:02:00,
2013-07-30 14:07:00,82.9,59.4,30.16,WNW,296,0.0,9.0,45,0.00,,BKN050,0.00,VWS V14.01,2013-07-30 18:07:00,
2013-07-30 14:12:00,82.7,59.2,30.16,NNW,336,5.0,9.0,45,0.00,,BKN050,0.00,VWS V14.01,2013-07-30 18:12:00,
2013-07-30 14:17:00,82.4,59.6,30.16,NW,323,4.0,10.0,46,0.00,,BKN050,0.00,VWS V14.01,2013-07-30 18:17:00,
2013-07-30 14:22:00,81.8,60.2,30.16,NNW,346,3.0,10.0,48,0.00,,BKN050,0.00,VWS V14.01,2013-07-30 18:22:00,
2013-07-30 14:27:00,81.8,59.0,30.16,WNW,298,0.0,10.0,46,0.00,,BKN050,0.00,VWS V14.01,2013-07-30 18:27:00,
2013-07-30 14:32:00,82.4,59.6,30.16,NW,321,4.0,5.0,46,0.00,,BKN050,0.00,VWS V14.01,2013-07-30 18:32:00,
2013-07-30 14:37:00,83.0,59.5,30.16,NW,310,7.0,9.0,45,0.00,,BKN050,0.00,VWS V14.01,2013-07-30 18:37:00,
2013-07-30 14:42:00,83.8,59.6,30.16,West,265,1.0,10.0,44,0.00,,BKN050,0.00,VWS V14.01,2013-07-30 18:42:00,
2013-07-30 14:47:00,83.8,58.9,30.15,SW,219,2.0,10.0,43,0.00,,BKN050,0.00,VWS V14.01,2013-07-30 18:47:00,
2013-07-30 14:52:00,83.4,61.1,30.15,NW,313,6.0,10.0,47,0.00,,BKN050,0.00,VWS V14.01,2013-07-30 18:52:00,
2013-07-30 14:57:00,83.8,60.8,30.15,NW,306,3.0,10.0,46,0.00,,BKN050,0.00,VWS V14.01,2013-07-30 18:57:00,
2013-07-30 15:02:00,83.9,60.9,30.15,NNW,342,2.0,4.0,46,0.00,,SCT060,0.00,VWS V14.01,2013-07-30 19:02:00,
2013-07-30 15:07:00,84.1,61.1,30.15,NNW,331,2.0,8.0,46,0.00,,SCT060,0.00,VWS V14.01,2013-07-30 19:07:00,
2013-07-30 15:12:00,83.6,60.0,30.15,NW,325,1.0,8.0,45,0.00,,SCT060,0.00,VWS V14.01,2013-07-30 19:12:00,
2013-07-30 15:17:00,83.1,60.2,30.15,NNW,345,0.0,8.0,46,0.00,,SCT060,0.00,VWS V14.01,2013-07-30 19:17:00,
2013-07-30 15:22:00,82.9,60.0,30.15,NW,319,3.0,8.0,46,0.00,,SCT060,0.00,VWS V14.01,2013-07-30 19:22:00,
2013-07-30 15:27:00,83.0,58.9,30.15,NW,317,1.0,8.0,44,0.00,,SCT060,0.00,VWS V14.01,2013-07-30 19:27:00,
2013-07-30 15:32:00,83.7,59.5,30.15,NNW,338,5.0,7.0,44,0.00,,SCT060,0.00,VWS V14.01,2013-07-30 19:32:00,
2013-07-30 15:37:00,84.3,60.0,30.15,NNW,329,1.0,7.0,44,0.00,,SCT060,0.00,VWS V14.01,2013-07-30 19:37:00,
2013-07-30 15:42:00,85.0,60.7,30.15,NW,321,5.0,7.0,44,0.00,,SCT060,0.00,VWS V14.01,2013-07-30 19:42:00,
2013-07-30 15:47:00,85.4,61.0,30.15,NW,326,2.0,10.0,44,0.00,,SCT060,0.00,VWS V14.01,2013-07-30 19:47:00,
2013-07-30 15:52:00,85.6,59.9,30.15,NNW,342,9.0,11.0,42,0.00,,SCT060,0.00,VWS V14.01,2013-07-30 19:52:00,
2013-07-30 15:57:00,85.0,60.0,30.15,NW,325,5.0,11.0,43,0.00,,SCT060,0.00,VWS V14.01,2013-07-30 19:57:00,
2013-07-30 16:03:00,84.8,59.8,30.14,West,263,1.0,8.0,43,0.00,,BKN070,0.00,VWS V14.01,2013-07-30 20:03:00,
2013-07-30 16:08:00,84.5,59.6,30.14,WNW,299,2.0,8.0,43,0.00,,BKN070,0.00,VWS V14.01,2013-07-30 20:08:00,
2013-07-30 16:13:00,83.9,59.7,30.14,SW,236,1.0,8.0,44,0.00,,BKN070,0.00,VWS V14.01,2013-07-30 20:13:00,
2013-07-30 16:18:00,82.7,59.8,30.14,WNW,296,3.0,8.0,46,0.00,,BKN070,0.00,VWS V14.01,2013-07-30 20:18:00,
2013-07-30 16:23:00,82.4,60.2,30.14,NW,304,3.0,8.0,47,0.00,,BKN070,0.00,VWS V14.01,2013-07-30 20:23:00,
2013-07-30 16:28:00,82.5,59.7,30.14,WSW,252,1.0,8.0,46,0.00,,BKN070,0.00,VWS V14.01,2013-07-30 20:28:00,
2013-07-30 16:33:00,82.1,58.7,30.14,WNW,296,1.0,6.0,45,0.00,,BKN070,0.00,VWS V14.01,2013-07-30 20:33:00,
2013-07-30 16:38:00,82.1,58.7,30.14,NNW,327,4.0,6.0,45,0.00,,BKN070,0.00,VWS V14.01,2013-07-30 20:38:00,
2013-07-30 16:43:00,82.4,60.8,30.13,WNW,300,3.0,7.0,48,0.00,,BKN070,0.00,VWS V14.01,2013-07-30 20:43:00,
2013-07-30 16:48:00,82.4,59.0,30.13,WNW,288,1.0,7.0,45,0.00,,BKN070,0.00,VWS V14.01,2013-07-30 20:48:00,
2013-07-30 16:53:00,82.9,60.0,30.13,West,270,5.0,7.0,46,0.00,,BKN070,0.00,VWS V14.01,2013-07-30 20:53:00,
2013-07-30 16:58:00,82.9,60.6,30.13,NW,304,3.0,7.0,47,0.00,,BKN070,0.00,VWS V14.01,2013-07-30 20:58:00,
2013-07-30 17:03:00,81.9,59.1,30.13,West,273,2.0,4.0,46,0.00,,BKN070,0.00,VWS V14.01,2013-07-30 21:03:00,
2013-07-30 17:08:00,81.8,60.2,30.13,West,262,3.0,5.0,48,0.00,,BKN070,0.00,VWS V14.01,2013-07-30 21:08:00,
2013-07-30 17:13:00,82.6,59.1,30.13,NNW,340,4.0,8.0,45,0.00,,BKN070,0.00,VWS V14.01,2013-07-30 21:13:00,
2013-07-30 17:18:00,83.0,60.1,30.13,WNW,289,3.0,8.0,46,0.00,,BKN070,0.00,VWS V14.01,2013-07-30 21:18:00,
2013-07-30 17:23:00,83.3,60.4,30.13,NW,304,3.0,8.0,46,0.00,,BKN070,0.00,VWS V14.01,2013-07-30 21:23:00,
2013-07-30 17:28:00,83.6,61.3,30.14,NW,309,1.0,8.0,47,0.00,,BKN070,0.00,VWS V14.01,2013-07-30 21:28:00,
2013-07-30 17:33:00,83.5,62.3,30.13,WNW,288,0.0,2.0,49,0.00,,BKN070,0.00,VWS V14.01,2013-07-30 21:33:00,
2013-07-30 17:38:00,83.3,61.6,30.13,NNW,336,2.0,6.0,48,0.00,,BKN070,0.00,VWS V14.01,2013-07-30 21:38:00,
2013-07-30 17:43:00,83.0,60.1,30.14,SSW,208,3.0,8.0,46,0.00,,BKN070,0.00,VWS V14.01,2013-07-30 21:43:00,
2013-07-30 17:48:00,82.7,59.2,30.14,NW,313,3.0,8.0,45,0.00,,BKN070,0.00,VWS V14.01,2013-07-30 21:48:00,
2013-07-30 17:53:00,82.3,60.1,30.13,WNW,290,2.0,8.0,47,0.00,,BKN070,0.00,VWS V14.01,2013-07-30 21:53:00,
2013-07-30 17:58:00,82.5,60.8,30.14,WNW,302,3.0,8.0,48,0.00,,BKN070,0.00,VWS V14.01,2013-07-30 21:58:00,
2013-07-30 18:03:00,82.5,60.3,30.14,NNW,345,2.0,5.0,47,0.00,,CLR,0.00,VWS V14.01,2013-07-30 22:03:00,
2013-07-30 18:08:00,82.4,60.8,30.14,WNW,287,0.0,5.0,48,0.00,,CLR,0.00,VWS V14.01,2013-07-30 22:08:00,
2013-07-30 18:13:00,82.2,60.6,30.14,West,281,0.0,6.0,48,0.00,,CLR,0.00,VWS V14.01,2013-07-30 22:13:00,
2013-07-30 18:18:00,81.7,60.7,30.14,WNW,302,1.0,6.0,49,0.00,,CLR,0.00,VWS V14.01,2013-07-30 22:18:00,
2013-07-30 18:23:00,81.2,60.2,30.14,NNW,336,1.0,6.0,49,0.00,,CLR,0.00,VWS V14.01,2013-07-30 22:23:00,
2013-07-30 18:28:00,80.9,61.1,30.14,South,172,1.0,6.0,51,0.00,,CLR,0.00,VWS V14.01,2013-07-30 22:28:00,
2013-07-30 18:33:00,80.5,60.7,30.15,WNW,286,1.0,4.0,51,0.00,,CLR,0.00,VWS V14.01,2013-07-30 22:33:00,
2013-07-30 18:38:00,80.5,60.2,30.15,WNW,292,3.0,7.0,50,0.00,,CLR,0.00,VWS V14.01,2013-07-30 22:38:00,
2013-07-30 18:43:00,80.6,60.8,30.14,WNW,290,2.0,7.0,51,0.00,,CLR,0.00,VWS V14.01,2013-07-30 22:43:00,
2013-07-30 18:48:00,80.4,61.2,30.15,NNW,342,1.0,7.0,52,0.00,,CLR,0.00,VWS V14.01,2013-07-30 22:48:00,
2013-07-30 18:53:00,79.8,61.2,30.15,West,273,2.0,7.0,53,0.00,,CLR,0.00,VWS V14.01,2013-07-30 22:53:00,
2013-07-30 18:58:00,79.1,61.0,30.15,NNW,333,0.0,7.0,54,0.00,,CLR,0.00,VWS V14.01,2013-07-30 22:58:00,
2013-07-30 19:03:00,78.8,61.3,30.15,WNW,290,2.0,3.0,55,0.00,,OVC075,0.00,VWS V14.01,2013-07-30 23:03:00,
2013-07-30 19:08:00,78.6,61.1,30.15,WNW,290,0.0,3.0,55,0.00,,OVC075,0.00,VWS V14.01,2013-07-30 23:08:00,
2013-07-30 19:13:00,78.8,61.8,30.15,WNW,296,0.0,3.0,56,0.00,,OVC075,0.00,VWS V14.01,2013-07-30 23:13:00,
2013-07-30 19:18:00,78.9,62.9,30.15,NW,312,0.0,3.0,58,0.00,,OVC075,0.00,VWS V14.01,2013-07-30 23:18:00,
2013-07-30 19:23:00,79.0,63.0,30.15,WNW,302,2.0,3.0,58,0.00,,OVC075,0.00,VWS V14.01,2013-07-30 23:23:00,
2013-07-30 19:28:00,78.9,62.4,30.15,NNW,335,1.0,3.0,57,0.00,,OVC075,0.00,VWS V14.01,2013-07-30 23:28:00,
2013-07-30 19:33:00,78.8,63.3,30.14,NNW,335,0.0,2.0,59,0.00,,OVC075,0.00,VWS V14.01,2013-07-30 23:33:00,
2013-07-30 19:38:00,78.7,63.2,30.14,NNW,335,0.0,3.0,59,0.00,,OVC075,0.00,VWS V14.01,2013-07-30 23:38:00,
2013-07-30 19:44:00,78.5,62.5,30.15,NNW,329,0.0,4.0,58,0.00,,OVC075,0.00,VWS V14.01,2013-07-30 23:44:00,
2013-07-30 19:49:00,78.2,63.7,30.15,NNW,329,0.0,4.0,61,0.00,,OVC075,0.00,VWS V14.01,2013-07-30 23:49:00,
2013-07-30 19:54:00,77.8,63.8,30.15,NNW,329,0.0,4.0,62,0.00,,OVC075,0.00,VWS V14.01,2013-07-30 23:54:00,
2013-07-30 19:59:00,77.1,64.4,30.15,NNW,329,0.0,4.0,65,0.00,,OVC075,0.00,VWS V14.01,2013-07-30 23:59:00,
2013-07-30 20:04:00,76.3,64.6,30.15,NNW,329,0.0,0.0,67,0.00,,OVC080,0.00,VWS V14.01,2013-07-31 00:04:00,
2013-07-30 20:09:00,75.3,64.0,30.15,NNW,329,0.0,1.0,68,0.00,,OVC080,0.00,VWS V14.01,2013-07-31 00:09:00,
2013-07-30 20:14:00,74.3,63.9,30.15,NNW,329,0.0,1.0,70,0.00,,OVC080,0.00,VWS V14.01,2013-07-31 00:14:00,
2013-07-30 20:19:00,73.3,63.7,30.15,NNW,329,0.0,1.0,72,0.00,,OVC080,0.00,VWS V14.01,2013-07-31 00:19:00,
2013-07-30 20:24:00,72.5,63.8,30.15,NNW,329,0.0,1.0,74,0.00,,OVC080,0.00,VWS V14.01,2013-07-31 00:24:00,
2013-07-30 20:29:00,71.7,63.7,30.14,NNW,329,0.0,1.0,76,0.00,,OVC080,0.00,VWS V14.01,2013-07-31 00:29:00,
2013-07-30 20:34:00,71.1,63.5,30.15,NNW,329,0.0,1.0,77,0.00,,OVC080,0.00,VWS V14.01,2013-07-31 00:34:00,
2013-07-30 20:39:00,70.6,63.4,30.15,NNW,329,0.0,1.0,78,0.00,,OVC080,0.00,VWS V14.01,2013-07-31 00:39:00,
2013-07-30 20:44:00,70.2,63.4,30.15,NNW,329,0.0,1.0,79,0.00,,OVC080,0.00,VWS V14.01,2013-07-31 00:44:00,
2013-07-30 20:49:00,69.8,63.4,30.15,NNW,329,0.0,1.0,80,0.00,,OVC080,0.00,VWS V14.01,2013-07-31 00:49:00,
2013-07-30 20:54:00,69.4,63.3,30.15,NNW,329,0.0,1.0,81,0.00,,OVC080,0.00,VWS V14.01,2013-07-31 00:54:00,
2013-07-30 20:59:00,69.2,63.1,30.15,NNW,329,0.0,1.0,81,0.00,,OVC080,0.00,VWS V14.01,2013-07-31 00:59:00,
2013-07-30 21:04:00,68.9,63.2,30.15,NNW,329,0.0,0.0,82,0.00,,SCT065,0.00,VWS V14.01,2013-07-31 01:04:00,
2013-07-30 21:09:00,68.6,63.2,30.15,NNW,329,0.0,0.0,83,0.00,,SCT065,0.00,VWS V14.01,2013-07-31 01:09:00,
2013-07-30 21:14:00,68.5,63.5,30.15,NNW,329,0.0,0.0,84,0.00,,SCT065,0.00,VWS V14.01,2013-07-31 01:14:00,
2013-07-30 21:19:00,68.4,63.7,30.15,NNW,329,0.0,0.0,85,0.00,,SCT065,0.00,VWS V14.01,2013-07-31 01:19:00,
2013-07-30 21:24:00,68.2,63.9,30.15,NNW,329,0.0,0.0,86,0.00,,SCT065,0.00,VWS V14.01,2013-07-31 01:24:00,
2013-07-30 21:29:00,68.1,64.1,30.15,NNW,329,0.0,0.0,87,0.00,,SCT065,0.00,VWS V14.01,2013-07-31 01:29:00,
2013-07-30 21:34:00,67.8,63.8,30.15,NNW,329,0.0,0.0,87,0.00,,SCT065,0.00,VWS V14.01,2013-07-31 01:34:00,
2013-07-30 21:39:00,67.4,63.4,30.16,NNW,329,0.0,0.0,87,0.00,,SCT065,0.00,VWS V14.01,2013-07-31 01:39:00,
2013-07-30 21:44:00,67.0,63.0,30.16,NNW,329,0.0,0.0,87,0.00,,SCT065,0.00,VWS V14.01,2013-07-31 01:44:00,
2013-07-30 21:49:00,66.8,63.1,30.16,NNW,329,0.0,0.0,88,0.00,,SCT065,0.00,VWS V14.01,2013-07-31 01:49:00,
2013-07-30 21:54:00,66.6,63.3,30.16,NNW,329,0.0,0.0,89,0.00,,SCT065,0.00,VWS V14.01,2013-07-31 01:54:00,
2013-07-30 21:59:00,66.4,62.7,30.16,NNW,329,0.0,0.0,88,0.00,,SCT065,0.00,VWS V14.01,2013-07-31 01:59:00,
2013-07-30 22:04:00,66.2,62.9,30.16,NNW,329,0.0,0.0,89,0.00,,CLR,0.00,VWS V14.01,2013-07-31 02:04:00,
2013-07-30 22:09:00,66.0,62.7,30.16,NNW,329,0.0,0.0,89,0.00,,CLR,0.00,VWS V14.01,2013-07-31 02:09:00,
2013-07-30 22:14:00,65.8,62.5,30.16,NNW,329,0.0,0.0,89,0.00,,CLR,0.00,VWS V14.01,2013-07-31 02:14:00,
2013-07-30 22:19:00,65.7,62.4,30.16,NNW,329,0.0,0.0,89,0.00,,CLR,0.00,VWS V14.01,2013-07-31 02:19:00,
2013-07-30 22:24:00,65.5,62.5,30.16,NNW,329,0.0,0.0,90,0.00,,CLR,0.00,VWS V14.01,2013-07-31 02:24:00,
2013-07-30 22:29:00,65.3,62.3,30.16,NNW,329,0.0,0.0,90,0.00,,CLR,0.00,VWS V14.01,2013-07-31 02:29:00,
2013-07-30 22:34:00,65.1,62.1,30.16,NNW,329,0.0,0.0,90,0.00,,CLR,0.00,VWS V14.01,2013-07-31 02:34:00,
2013-07-30 22:39:00,64.9,61.9,30.16,NNW,329,0.0,0.0,90,0.00,,,0.00,VWS V14.01,2013-07-31 02:39:00,
2013-07-30 22:44:00,64.9,61.9,30.16,NNW,329,0.0,0.0,90,0.00,,,0.00,VWS V14.01,2013-07-31 02:44:00,
2013-07-30 22:49:00,64.7,61.7,30.16,NNW,329,0.0,0.0,90,0.00,,,0.00,VWS V14.01,2013-07-31 02:49:00,
2013-07-30 22:54:00,64.5,61.5,30.16,NNW,329,0.0,0.0,90,0.00,,,0.00,VWS V14.01,2013-07-31 02:54:00,
2013-07-30 22:59:00,64.3,61.6,30.16,NNW,329,0.0,0.0,91,0.00,,CLR,0.00,VWS V14.01,2013-07-31 02:59:00,
2013-07-30 23:04:00,64.1,61.4,30.16,NNW,329,0.0,0.0,91,0.00,,CLR,0.00,VWS V14.01,2013-07-31 03:04:00,
2013-07-30 23:09:00,64.0,61.3,30.16,NNW,329,0.0,0.0,91,0.00,,CLR,0.00,VWS V14.01,2013-07-31 03:09:00,
2013-07-30 23:14:00,63.8,61.1,30.16,NNW,329,0.0,0.0,91,0.00,,CLR,0.00,VWS V14.01,2013-07-31 03:14:00,
2013-07-30 23:19:00,63.7,61.3,30.16,NNW,329,0.0,0.0,92,0.00,,CLR,0.00,VWS V14.01,2013-07-31 03:19:00,
2013-07-30 23:24:00,63.6,61.2,30.16,NNW,329,0.0,0.0,92,0.00,,CLR,0.00,VWS V14.01,2013-07-31 03:24:00,
2013-07-30 23:29:00,63.4,61.0,30.16,NNW,329,0.0,0.0,92,0.00,,CLR,0.00,VWS V14.01,2013-07-31 03:29:00,
2013-07-30 23:34:00,63.2,60.8,30.16,NNW,329,0.0,0.0,92,0.00,,CLR,0.00,VWS V14.01,2013-07-31 03:34:00,
2013-07-30 23:39:00,63.0,60.6,30.16,NNW,329,0.0,0.0,92,0.00,,CLR,0.00,VWS V14.01,2013-07-31 03:39:00,
2013-07-30 23:45:00,62.9,60.5,30.16,NNW,329,0.0,0.0,92,0.00,,CLR,0.00,VWS V14.01,2013-07-31 03:45:00,
2013-07-30 23:50:00,62.8,60.5,30.17,NNW,329,0.0,0.0,92,0.00,,CLR,0.00,VWS V14.01,2013-07-31 03:50:00,
2013-07-30 23:55:00,62.6,60.5,30.16,NNW,329,0.0,0.0,93,0.00,,CLR,0.00,VWS V14.01,2013-07-31 03:55:00,